Time;durP1;ratioP1;P1;durP2;ratioP2;P2;SDS_P1;SDS_P2;PMS_P1;PMS_P2;Temp;Humidity;BMP_temperature;BMP_pressure;BME280_temperature;BME280_humidity;BME280_pressure;Samples;Min_cycle;Max_cycle;Signal;HPM_P1;HPM_P2
2024/03/01 00:01:27;;;;;;;90.87;50.93;;;;;;;-146.29;100.00;59205.81;5029470;28;20184;-69
2024/03/01 00:03:52;;;;;;;52.97;34.40;;;;;;;-146.29;100.00;59205.81;5028481;28;20195;-68
2024/03/01 00:06:18;;;;;;;75.13;45.63;;;;;;;-146.29;100.00;59205.81;5028877;28;20287;-68
2024/03/01 00:08:43;;;;;;;62.50;37.27;;;;;;;-146.29;100.00;59205.81;5029017;28;20207;-69
2024/03/01 00:11:09;;;;;;;51.63;29.30;;;;;;;-146.29;100.00;59205.81;5027504;28;20193;-68
2024/03/01 00:13:34;;;;;;;50.27;30.87;;;;;;;-146.29;100.00;59205.81;5036570;28;20195;-68
2024/03/01 00:16:00;;;;;;;43.97;25.87;;;;;;;-146.29;100.00;59205.81;5031328;28;20192;-69
2024/03/01 00:18:25;;;;;;;45.10;26.53;;;;;;;-146.29;100.00;59205.81;5028409;28;20632;-68
2024/03/01 00:20:51;;;;;;;45.37;25.57;;;;;;;-146.29;100.00;59205.81;5027705;28;20187;-71
2024/03/01 00:23:17;;;;;;;53.63;32.43;;;;;;;-146.29;100.00;59205.81;5032210;28;20184;-68
2024/03/01 00:25:44;;;;;;;72.53;39.70;;;;;;;-146.29;100.00;59205.81;5037476;28;20918;-68
2024/03/01 00:28:09;;;;;;;43.87;26.20;;;;;;;-146.29;100.00;59205.81;5038581;28;20636;-68
2024/03/01 00:30:35;;;;;;;37.87;23.67;;;;;;;-146.29;100.00;59205.81;5029158;28;20509;-69
2024/03/01 00:33:03;;;;;;;53.20;33.23;;;;;;;-146.29;100.00;59205.81;5027927;28;20270;-70
2024/03/01 00:35:28;;;;;;;54.97;31.47;;;;;;;-146.29;100.00;59205.81;5027959;28;20595;-69
2024/03/01 00:37:54;;;;;;;41.23;25.30;;;;;;;-146.29;100.00;59205.81;5028884;28;20521;-68
2024/03/01 00:40:19;;;;;;;40.83;24.17;;;;;;;-146.29;100.00;59205.81;5016050;28;20210;-69
2024/03/01 00:42:45;;;;;;;36.17;22.13;;;;;;;-146.29;100.00;59205.81;5049847;28;20179;-68
2024/03/01 00:45:10;;;;;;;39.07;23.53;;;;;;;-146.29;100.00;59205.81;5032631;28;20184;-70
2024/03/01 00:47:43;;;;;;;51.60;31.57;;;;;;;-146.29;100.00;59205.81;5027628;28;20192;-69
2024/03/01 00:50:09;;;;;;;40.63;24.73;;;;;;;-146.29;100.00;59205.81;5030470;28;20592;-69
2024/03/01 00:52:34;;;;;;;58.33;34.40;;;;;;;-146.29;100.00;59205.81;5030712;28;20434;-68
2024/03/01 00:55:00;;;;;;;36.40;22.23;;;;;;;-146.29;100.00;59205.81;5033181;28;20282;-70
2024/03/01 00:57:25;;;;;;;35.60;21.67;;;;;;;-146.29;100.00;59205.81;5028155;28;20194;-70
2024/03/01 00:59:51;;;;;;;40.97;22.77;;;;;;;-146.29;100.00;59205.81;5027452;28;20213;-69
2024/03/01 01:02:16;;;;;;;42.87;22.83;;;;;;;-146.29;100.00;59205.81;5033069;28;20188;-69
2024/03/01 01:04:41;;;;;;;41.03;23.17;;;;;;;-146.29;100.00;59205.81;5031492;28;20750;-68
2024/03/01 01:07:07;;;;;;;40.20;23.60;;;;;;;-146.29;100.00;59205.81;5043153;28;20277;-69
2024/03/01 01:09:32;;;;;;;40.97;24.87;;;;;;;-146.29;100.00;59205.81;5026597;28;20277;-69
2024/03/01 01:11:58;;;;;;;44.60;24.20;;;;;;;-146.29;100.00;59205.81;5034472;28;20187;-68
2024/03/01 01:14:23;;;;;;;50.67;28.83;;;;;;;-146.29;100.00;59205.81;5034336;28;20199;-68
2024/03/01 01:16:49;;;;;;;55.27;29.80;;;;;;;-146.29;100.00;59205.81;5043686;28;20192;-68
2024/03/01 01:19:14;;;;;;;39.70;25.17;;;;;;;-146.29;100.00;59205.81;5047255;28;20588;-68
2024/03/01 01:21:39;;;;;;;48.80;26.23;;;;;;;-146.29;100.00;59205.81;5028046;28;20302;-68
2024/03/01 01:24:05;;;;;;;44.47;24.43;;;;;;;-146.29;100.00;59205.81;5032350;28;20198;-69
2024/03/01 01:26:30;;;;;;;43.43;23.60;;;;;;;-146.29;100.00;59205.81;5035824;28;20866;-68
2024/03/01 01:28:56;;;;;;;37.00;23.27;;;;;;;-146.29;100.00;59205.81;5033053;28;20199;-70
2024/03/01 01:31:21;;;;;;;50.07;28.77;;;;;;;-146.29;100.00;59205.81;5031257;28;20190;-69
2024/03/01 01:33:47;;;;;;;42.90;23.40;;;;;;;-146.29;100.00;59205.81;5008748;28;20262;-69
2024/03/01 01:36:12;;;;;;;43.17;25.37;;;;;;;-146.29;100.00;59205.81;5035969;28;20213;-70
2024/03/01 01:38:38;;;;;;;43.77;25.17;;;;;;;-146.29;100.00;59205.81;5027702;28;20199;-69
2024/03/01 01:41:04;;;;;;;42.13;24.43;;;;;;;-146.29;100.00;59205.81;5034705;28;20554;-68
2024/03/01 01:43:32;;;;;;;45.53;27.23;;;;;;;-146.29;100.00;59205.81;5027669;28;20172;-70
2024/03/01 01:45:57;;;;;;;38.17;22.67;;;;;;;-146.29;100.00;59205.81;5010298;28;20706;-69
2024/03/01 01:48:23;;;;;;;42.60;24.23;;;;;;;-146.29;100.00;59205.81;5027622;28;20443;-68
2024/03/01 01:50:49;;;;;;;38.60;23.73;;;;;;;-146.29;100.00;59205.81;5028868;28;20602;-68
2024/03/01 01:53:15;;;;;;;39.80;24.50;;;;;;;-146.29;100.00;59205.81;5009848;28;20180;-70
2024/03/01 01:55:41;;;;;;;44.10;25.10;;;;;;;-146.29;100.00;59205.81;5031236;28;20419;-68
2024/03/01 01:58:07;;;;;;;42.57;23.80;;;;;;;-146.29;100.00;59205.81;5027936;28;20215;-68
2024/03/01 02:00:33;;;;;;;41.00;23.83;;;;;;;-146.29;100.00;59205.81;5029539;28;20461;-69
2024/03/01 02:02:59;;;;;;;39.67;23.97;;;;;;;-146.29;100.00;59205.81;5039630;28;20237;-69
2024/03/01 02:05:25;;;;;;;40.03;23.33;;;;;;;-146.29;100.00;59205.81;5027773;28;20918;-69
2024/03/01 02:07:50;;;;;;;36.73;22.43;;;;;;;-146.29;100.00;59205.81;5027551;28;20187;-70
2024/03/01 02:10:19;;;;;;;48.87;25.67;;;;;;;-146.29;100.00;59205.81;5025490;28;21134;-68
2024/03/01 02:12:57;;;;;;;41.43;24.33;;;;;;;-146.29;100.00;59205.81;5027742;28;20641;-69
2024/03/01 02:15:27;;;;;;;43.03;23.13;;;;;;;-146.29;100.00;59205.81;5033975;28;20479;-67
2024/03/01 02:17:53;;;;;;;39.53;22.57;;;;;;;-146.29;100.00;59205.81;5043403;28;20430;-68
2024/03/01 02:20:24;;;;;;;38.13;22.73;;;;;;;-146.29;100.00;59205.81;5035463;28;20464;-69
2024/03/01 02:22:55;;;;;;;41.20;24.97;;;;;;;-146.29;100.00;59205.81;5024629;28;20819;-69
2024/03/01 02:25:20;;;;;;;45.07;24.30;;;;;;;-146.29;100.00;59205.81;5026170;28;20434;-69
2024/03/01 02:27:47;;;;;;;42.30;23.70;;;;;;;-146.29;100.00;59205.81;5026868;28;20887;-67
2024/03/01 02:30:13;;;;;;;42.63;25.00;;;;;;;-146.29;100.00;59205.81;5027749;28;20548;-69
2024/03/01 02:32:38;;;;;;;43.03;24.30;;;;;;;-146.29;100.00;59205.81;5033806;28;20418;-69
2024/03/01 02:35:04;;;;;;;41.53;23.93;;;;;;;-146.29;100.00;59205.81;5035536;28;20422;-69
2024/03/01 02:37:29;;;;;;;52.27;24.23;;;;;;;-146.29;100.00;59205.81;5042142;28;20194;-67
2024/03/01 02:39:55;;;;;;;42.17;24.27;;;;;;;-146.29;100.00;59205.81;5031327;28;20617;-68
2024/03/01 02:42:20;;;;;;;40.53;23.33;;;;;;;-146.29;100.00;59205.81;5030069;28;20339;-67
2024/03/01 02:44:46;;;;;;;41.13;22.73;;;;;;;-146.29;100.00;59205.81;5039471;28;20283;-67
2024/03/01 02:47:11;;;;;;;37.40;22.23;;;;;;;-146.29;100.00;59205.81;5039112;28;20191;-69
2024/03/01 02:49:37;;;;;;;39.10;23.30;;;;;;;-146.29;100.00;59205.81;5035535;28;20209;-68
2024/03/01 02:52:03;;;;;;;43.13;24.23;;;;;;;-146.29;100.00;59205.81;5031201;28;20242;-68
2024/03/01 02:54:28;;;;;;;40.73;24.23;;;;;;;-146.29;100.00;59205.81;5030897;28;20431;-67
2024/03/01 02:56:54;;;;;;;55.43;24.47;;;;;;;-146.29;100.00;59205.81;5030812;28;20667;-68
2024/03/01 02:59:19;;;;;;;49.37;28.30;;;;;;;-146.29;100.00;59205.81;5031065;28;20395;-69
2024/03/01 03:01:45;;;;;;;41.63;25.87;;;;;;;-146.29;100.00;59205.81;5029799;28;20183;-69
2024/03/01 03:04:12;;;;;;;40.67;23.93;;;;;;;-146.29;100.00;59205.81;5030578;28;20770;-68
2024/03/01 03:06:37;;;;;;;38.17;22.17;;;;;;;-146.29;100.00;59205.81;5029025;28;20265;-68
2024/03/01 03:09:07;;;;;;;38.87;22.90;;;;;;;-146.29;100.00;59205.81;5031114;28;20446;-69
2024/03/01 03:11:32;;;;;;;38.47;22.93;;;;;;;-146.29;100.00;59205.81;5030498;28;20219;-70
2024/03/01 03:13:58;;;;;;;44.53;25.00;;;;;;;-146.29;100.00;59205.81;5031030;28;20478;-67
2024/03/01 03:16:23;;;;;;;35.50;22.73;;;;;;;-146.29;100.00;59205.81;5030448;28;20627;-69
2024/03/01 03:18:49;;;;;;;41.73;22.40;;;;;;;-146.29;100.00;59205.81;5029573;28;20261;-68
2024/03/01 03:21:14;;;;;;;39.53;20.80;;;;;;;-146.29;100.00;59205.81;5036568;28;20663;-70
2024/03/01 03:23:40;;;;;;;35.63;21.77;;;;;;;-146.29;100.00;59205.81;5034584;28;20187;-68
2024/03/01 03:26:05;;;;;;;43.47;25.20;;;;;;;-146.29;100.00;59205.81;5030449;28;20242;-67
2024/03/01 03:28:31;;;;;;;37.53;23.80;;;;;;;-146.29;100.00;59205.81;5030383;28;20207;-68
2024/03/01 03:30:56;;;;;;;40.53;23.27;;;;;;;-146.29;100.00;59205.81;5029220;28;20290;-68
2024/03/01 03:33:22;;;;;;;40.80;22.70;;;;;;;-146.29;100.00;59205.81;5025441;28;20345;-67
2024/03/01 03:35:47;;;;;;;42.43;24.50;;;;;;;-146.29;100.00;59205.81;5033767;28;20266;-68
2024/03/01 03:38:12;;;;;;;47.87;21.70;;;;;;;-146.29;100.00;59205.81;5038051;28;20261;-69
2024/03/01 03:40:38;;;;;;;41.40;23.53;;;;;;;-146.29;100.00;59205.81;5033176;28;20684;-67
2024/03/01 03:43:03;;;;;;;39.50;25.57;;;;;;;-146.29;100.00;59205.81;5037629;28;20226;-68
2024/03/01 03:45:29;;;;;;;40.50;22.70;;;;;;;-146.29;100.00;59205.81;5030455;28;20180;-68
2024/03/01 03:47:54;;;;;;;43.90;23.73;;;;;;;-146.29;100.00;59205.81;5036545;28;20853;-69
2024/03/01 03:50:20;;;;;;;38.37;23.63;;;;;;;-146.29;100.00;59205.81;5034601;28;20180;-69
2024/03/01 03:52:45;;;;;;;43.93;24.10;;;;;;;-146.29;100.00;59205.81;5038174;28;20187;-70
2024/03/01 03:55:10;;;;;;;38.70;23.37;;;;;;;-146.29;100.00;59205.81;5030034;28;20275;-69
2024/03/01 03:57:36;;;;;;;38.30;23.60;;;;;;;-146.29;100.00;59205.81;5028231;28;20290;-69
2024/03/01 04:00:08;;;;;;;45.27;23.07;;;;;;;-146.29;100.00;59205.81;5028338;28;20220;-68
2024/03/01 04:02:33;;;;;;;46.53;23.67;;;;;;;-146.29;100.00;59205.81;5030180;28;20196;-68
2024/03/01 04:04:59;;;;;;;41.30;24.57;;;;;;;-146.29;100.00;59205.81;5029866;28;20525;-68
2024/03/01 04:07:24;;;;;;;40.50;23.90;;;;;;;-146.29;100.00;59205.81;5016085;28;20219;-68
2024/03/01 04:09:51;;;;;;;38.00;23.63;;;;;;;-146.29;100.00;59205.81;5029730;28;20207;-68
2024/03/01 04:12:16;;;;;;;37.20;23.40;;;;;;;-146.29;100.00;59205.81;5029617;28;20184;-70
2024/03/01 04:14:42;;;;;;;43.70;23.63;;;;;;;-146.29;100.00;59205.81;5031379;28;20468;-68
2024/03/01 04:17:10;;;;;;;36.70;22.47;;;;;;;-146.29;100.00;59205.81;5029359;28;20183;-69
2024/03/01 04:19:37;;;;;;;44.03;24.17;;;;;;;-146.29;100.00;59205.81;5029196;28;20216;-70
2024/03/01 04:22:03;;;;;;;41.37;24.00;;;;;;;-146.29;100.00;59205.81;5029712;28;20422;-69
2024/03/01 04:24:29;;;;;;;47.03;25.67;;;;;;;-146.29;100.00;59205.81;5030794;28;20422;-69
2024/03/01 04:26:55;;;;;;;40.10;22.63;;;;;;;-146.29;100.00;59205.81;5037573;28;20346;-69
2024/03/01 04:29:20;;;;;;;43.97;23.83;;;;;;;-146.29;100.00;59205.81;5029760;28;20533;-68
2024/03/01 04:31:49;;;;;;;38.47;24.23;;;;;;;-146.29;100.00;59205.81;5033952;28;20217;-69
2024/03/01 04:34:16;;;;;;;50.20;25.20;;;;;;;-146.29;100.00;59205.81;5029310;28;20211;-71
2024/03/01 04:36:42;;;;;;;44.57;23.53;;;;;;;-146.29;100.00;59205.81;5029679;28;20426;-69
2024/03/01 04:39:07;;;;;;;39.13;22.83;;;;;;;-146.29;100.00;59205.81;5030512;28;20989;-68
2024/03/01 04:41:33;;;;;;;41.40;23.70;;;;;;;-146.29;100.00;59205.81;5028412;28;20194;-68
2024/03/01 04:43:58;;;;;;;40.90;23.40;;;;;;;-146.29;100.00;59205.81;5033600;28;20183;-70
2024/03/01 04:46:24;;;;;;;39.93;23.23;;;;;;;-146.29;100.00;59205.81;5034191;28;20192;-69
2024/03/01 04:48:49;;;;;;;42.20;24.10;;;;;;;-146.29;100.00;59205.81;5029125;28;20282;-70
2024/03/01 04:51:15;;;;;;;38.97;23.33;;;;;;;-146.29;100.00;59205.81;5039034;28;20184;-69
2024/03/01 04:53:40;;;;;;;42.27;24.27;;;;;;;-146.29;100.00;59205.81;5029885;28;20187;-68
2024/03/01 04:56:10;;;;;;;36.50;21.80;;;;;;;-146.29;100.00;59205.81;5022370;28;20228;-69
2024/03/01 04:58:36;;;;;;;42.63;23.67;;;;;;;-146.29;100.00;59205.81;5023855;28;20457;-70
2024/03/01 05:01:02;;;;;;;39.97;24.23;;;;;;;-146.29;100.00;59205.81;5028370;28;20423;-68
2024/03/01 05:03:31;;;;;;;42.53;23.23;;;;;;;-146.29;100.00;59205.81;5030673;28;20184;-68
2024/03/01 05:05:57;;;;;;;42.43;24.17;;;;;;;-146.29;100.00;59205.81;5022939;28;20267;-69
2024/03/01 05:08:23;;;;;;;42.17;22.67;;;;;;;-146.29;100.00;59205.81;5027218;28;20450;-69
2024/03/01 05:10:51;;;;;;;37.93;23.90;;;;;;;-146.29;100.00;59205.81;5026400;28;20481;-70
2024/03/01 05:13:18;;;;;;;42.80;25.23;;;;;;;-146.29;100.00;59205.81;5023576;28;20449;-70
2024/03/01 05:15:48;;;;;;;47.37;25.73;;;;;;;-146.29;100.00;59205.81;5037497;28;20419;-69
2024/03/01 05:18:14;;;;;;;41.13;24.63;;;;;;;-146.29;100.00;59205.81;5034853;28;20453;-69
2024/03/01 05:20:39;;;;;;;40.17;25.13;;;;;;;-146.29;100.00;59205.81;5038439;28;20840;-69
2024/03/01 05:23:06;;;;;;;41.27;24.67;;;;;;;-146.29;100.00;59205.81;5022814;28;20497;-69
2024/03/01 05:25:31;;;;;;;37.63;22.50;;;;;;;-146.29;100.00;59205.81;5042956;28;20916;-69
2024/03/01 05:27:57;;;;;;;41.27;23.50;;;;;;;-146.29;100.00;59205.81;5019211;28;20513;-68
2024/03/01 05:30:23;;;;;;;44.90;23.80;;;;;;;-146.29;100.00;59205.81;5028229;28;20195;-69
2024/03/01 05:32:50;;;;;;;46.93;26.30;;;;;;;-146.29;100.00;59205.81;5027976;28;20192;-69
2024/03/01 05:35:20;;;;;;;51.43;33.20;;;;;;;-146.29;100.00;59205.81;5027909;28;21192;-69
2024/03/01 05:37:46;;;;;;;53.73;28.07;;;;;;;-146.29;100.00;59205.81;5023767;28;20488;-69
2024/03/01 05:40:14;;;;;;;41.03;25.60;;;;;;;-146.29;100.00;59205.81;5034452;28;20465;-70
2024/03/01 05:42:46;;;;;;;43.90;26.03;;;;;;;-146.29;100.00;59205.81;5030245;28;20195;-68
2024/03/01 05:45:12;;;;;;;42.27;25.03;;;;;;;-146.29;100.00;59205.81;5044193;28;20442;-68
2024/03/01 05:47:44;;;;;;;41.53;22.57;;;;;;;-146.29;100.00;59205.81;5027465;28;20426;-68
2024/03/01 05:50:13;;;;;;;37.27;23.20;;;;;;;-146.29;100.00;59205.81;5027843;28;20199;-68
2024/03/01 05:52:43;;;;;;;43.90;23.87;;;;;;;-146.29;100.00;59205.81;5027296;28;20442;-68
2024/03/01 05:55:09;;;;;;;42.70;23.30;;;;;;;-146.29;100.00;59205.81;5034909;28;20427;-69
2024/03/01 05:57:35;;;;;;;41.20;23.70;;;;;;;-146.29;100.00;59205.81;5024126;28;20805;-69
2024/03/01 06:00:09;;;;;;;43.50;24.70;;;;;;;-146.29;100.00;59205.81;5026508;28;20477;-69
2024/03/01 06:02:38;;;;;;;42.77;24.97;;;;;;;-146.29;100.00;59205.81;5026711;28;20439;-69
2024/03/01 06:05:04;;;;;;;40.53;23.67;;;;;;;-146.29;100.00;59205.81;5026712;28;20457;-68
2024/03/01 06:07:29;;;;;;;43.90;24.20;;;;;;;-146.29;100.00;59205.81;5030376;28;20430;-69
2024/03/01 06:09:55;;;;;;;40.00;24.10;;;;;;;-146.29;100.00;59205.81;5030597;28;20465;-69
2024/03/01 06:12:20;;;;;;;45.63;23.87;;;;;;;-146.29;100.00;59205.81;5031606;28;20284;-68
2024/03/01 06:14:46;;;;;;;50.60;25.77;;;;;;;-146.29;100.00;59205.81;5033649;28;20205;-70
2024/03/01 06:17:11;;;;;;;43.93;25.07;;;;;;;-146.29;100.00;59205.81;5031201;28;20275;-69
2024/03/01 06:19:36;;;;;;;43.97;24.83;;;;;;;-146.29;100.00;59205.81;5039966;28;20914;-69
2024/03/01 06:22:02;;;;;;;42.60;24.43;;;;;;;-146.29;100.00;59205.81;5038545;28;20270;-71
2024/03/01 06:24:27;;;;;;;46.87;26.67;;;;;;;-146.29;100.00;59205.81;5031231;28;20180;-69
2024/03/01 06:26:55;;;;;;;44.53;27.77;;;;;;;-146.29;100.00;59205.81;5032102;28;20792;-69
2024/03/01 06:29:20;;;;;;;44.00;26.40;;;;;;;-146.29;100.00;59205.81;5024306;28;20286;-70
2024/03/01 06:31:46;;;;;;;46.90;27.00;;;;;;;-146.29;100.00;59205.81;5029553;28;20492;-69
2024/03/01 06:34:11;;;;;;;47.77;29.40;;;;;;;-146.29;100.00;59205.81;5031204;28;20190;-70
2024/03/01 06:36:37;;;;;;;47.50;27.20;;;;;;;-146.29;100.00;59205.81;5036875;28;20188;-69
2024/03/01 06:39:02;;;;;;;45.53;25.20;;;;;;;-146.29;100.00;59205.81;5028262;28;20207;-70
2024/03/01 06:41:28;;;;;;;43.93;24.87;;;;;;;-146.29;100.00;59205.81;5013374;28;20188;-70
2024/03/01 06:43:53;;;;;;;42.83;25.67;;;;;;;-146.29;100.00;59205.81;5030870;28;20184;-70
2024/03/01 06:46:19;;;;;;;37.60;23.63;;;;;;;-146.29;100.00;59205.81;5033381;28;20188;-69
2024/03/01 06:48:45;;;;;;;43.33;24.67;;;;;;;-146.29;100.00;59205.81;5028880;28;20210;-69
2024/03/01 06:51:10;;;;;;;41.90;24.60;;;;;;;-146.29;100.00;59205.81;5034785;28;20183;-68
2024/03/01 06:53:36;;;;;;;43.00;25.70;;;;;;;-146.29;100.00;59205.81;5030707;28;20696;-69
2024/03/01 06:56:02;;;;;;;36.27;23.17;;;;;;;-146.29;100.00;59205.81;5035282;28;20721;-69
2024/03/01 06:58:28;;;;;;;41.57;24.00;;;;;;;-146.29;100.00;59205.81;5033223;28;20210;-70
2024/03/01 07:00:53;;;;;;;39.07;22.87;;;;;;;-146.29;100.00;59205.81;5028448;28;20462;-69
2024/03/01 07:03:19;;;;;;;40.20;24.00;;;;;;;-146.29;100.00;59205.81;5032193;28;20196;-69
2024/03/01 07:05:44;;;;;;;43.60;24.80;;;;;;;-146.29;100.00;59205.81;5026857;28;20310;-69
2024/03/01 07:08:10;;;;;;;44.30;24.70;;;;;;;-146.29;100.00;59205.81;5025266;28;20215;-70
2024/03/01 07:10:35;;;;;;;39.73;23.50;;;;;;;-146.29;100.00;59205.81;5026132;28;20267;-70
2024/03/01 07:13:01;;;;;;;40.43;26.40;;;;;;;-146.29;100.00;59205.81;5029755;28;20203;-69
2024/03/01 07:15:27;;;;;;;36.60;24.17;;;;;;;-146.29;100.00;59205.81;5028922;28;20195;-68
2024/03/01 07:17:53;;;;;;;42.53;24.87;;;;;;;-146.29;100.00;59205.81;5041416;28;20199;-69
2024/03/01 07:20:19;;;;;;;42.80;25.30;;;;;;;-146.29;100.00;59205.81;5026360;28;20470;-69
2024/03/01 07:22:45;;;;;;;41.83;25.00;;;;;;;-146.29;100.00;59205.81;5013445;28;20453;-69
2024/03/01 07:25:10;;;;;;;39.93;24.50;;;;;;;-146.29;100.00;59205.81;5028753;28;20196;-69
2024/03/01 07:27:35;;;;;;;44.20;24.03;;;;;;;-146.29;100.00;59205.81;5046103;28;20221;-71
2024/03/01 07:30:04;;;;;;;39.27;24.00;;;;;;;-146.29;100.00;59205.81;5044542;28;20239;-69
2024/03/01 07:32:31;;;;;;;41.77;23.53;;;;;;;-146.29;100.00;59205.81;5029672;28;20195;-68
2024/03/01 07:34:56;;;;;;;39.10;23.77;;;;;;;-146.29;100.00;59205.81;5036967;28;20422;-68
2024/03/01 07:37:22;;;;;;;43.47;23.43;;;;;;;-146.29;100.00;59205.81;5030373;28;20480;-69
2024/03/01 07:39:47;;;;;;;45.20;25.13;;;;;;;-146.29;100.00;59205.81;5029903;28;20216;-69
2024/03/01 07:42:13;;;;;;;42.00;25.23;;;;;;;-146.29;100.00;59205.81;5029132;28;20184;-70
2024/03/01 07:44:38;;;;;;;41.77;25.30;;;;;;;-146.29;100.00;59205.81;5027890;28;20913;-69
2024/03/01 07:47:04;;;;;;;41.27;24.23;;;;;;;-146.29;100.00;59205.81;5027031;28;20198;-70
2024/03/01 07:49:29;;;;;;;37.93;24.10;;;;;;;-146.29;100.00;59205.81;5042001;28;20203;-70
2024/03/01 07:51:56;;;;;;;39.63;24.47;;;;;;;-146.29;100.00;59205.81;5046438;28;20238;-69
2024/03/01 07:54:21;;;;;;;42.77;25.70;;;;;;;-146.29;100.00;59205.81;5027992;28;20259;-70
2024/03/01 07:56:47;;;;;;;39.13;25.33;;;;;;;-146.29;100.00;59205.81;5014833;28;20533;-69
2024/03/01 07:59:12;;;;;;;43.43;24.80;;;;;;;-146.29;100.00;59205.81;5027899;28;20219;-70
2024/03/01 08:01:38;;;;;;;39.07;23.60;;;;;;;-146.29;100.00;59205.81;5027924;28;20184;-69
2024/03/01 08:04:04;;;;;;;42.90;25.10;;;;;;;-146.29;100.00;59205.81;5023756;28;20275;-68
2024/03/01 08:06:30;;;;;;;35.80;22.53;;;;;;;-146.29;100.00;59205.81;5006375;28;20191;-69
2024/03/01 08:08:55;;;;;;;34.40;23.10;;;;;;;-146.29;100.00;59205.81;5011644;28;20234;-69
2024/03/01 08:11:41;;;;;;;42.07;24.80;;;;;;;-146.29;100.00;59205.81;5028082;28;20194;-69
2024/03/01 08:14:16;;;;;;;46.70;26.20;;;;;;;-146.29;100.00;59205.81;5028515;28;20272;-69
2024/03/01 08:16:42;;;;;;;41.40;25.80;;;;;;;-146.29;100.00;59205.81;5029470;28;20823;-70
2024/03/01 08:19:11;;;;;;;36.60;21.77;;;;;;;-146.29;100.00;59205.81;5027613;28;20466;-68
2024/03/01 08:21:37;;;;;;;47.33;23.60;;;;;;;-146.29;100.00;59205.81;5030287;28;20184;-69
2024/03/01 08:24:03;;;;;;;37.63;22.33;;;;;;;-146.29;100.00;59205.81;5029031;28;20429;-69
2024/03/01 08:26:29;;;;;;;32.10;20.40;;;;;;;-146.29;100.00;59205.81;5029135;28;20203;-71
2024/03/01 08:28:57;;;;;;;27.47;16.60;;;;;;;-146.29;100.00;59205.81;5034881;28;20446;-70
2024/03/01 08:31:36;;;;;;;32.27;15.10;;;;;;;-146.29;100.00;59205.81;5034763;28;20433;-69
2024/03/01 08:34:15;;;;;;;27.07;16.57;;;;;;;-146.29;100.00;59205.81;5030687;28;20521;-70
2024/03/01 08:36:41;;;;;;;22.67;15.30;;;;;;;-146.29;100.00;59205.81;5032501;28;20500;-69
2024/03/01 08:39:10;;;;;;;24.33;14.70;;;;;;;-146.29;100.00;59205.81;5030611;28;20501;-70
2024/03/01 08:41:37;;;;;;;19.73;13.50;;;;;;;-146.29;100.00;59205.81;5034168;28;20184;-71
2024/03/01 08:44:20;;;;;;;22.63;13.93;;;;;;;-146.29;100.00;59205.81;5034078;28;20568;-69
2024/03/01 08:46:45;;;;;;;29.33;19.77;;;;;;;-146.29;100.00;59205.81;5031507;28;20453;-70
2024/03/01 08:49:32;;;;;;;29.20;19.50;;;;;;;-146.29;100.00;59205.81;5034100;28;20446;-71
2024/03/01 08:51:58;;;;;;;18.57;12.70;;;;;;;-146.29;100.00;59205.81;5026198;28;20191;-69
2024/03/01 08:54:26;;;;;;;18.13;11.93;;;;;;;-146.29;100.00;59205.81;5013165;28;20453;-70
2024/03/01 08:57:21;;;;;;;21.97;11.23;;;;;;;-146.29;100.00;59205.81;5043597;28;20563;-71
2024/03/01 08:59:48;;;;;;;18.70;11.27;;;;;;;-146.29;100.00;59205.81;5023897;28;20458;-70
2024/03/01 09:02:46;;;;;;;22.03;11.60;;;;;;;-146.29;100.00;59205.81;5028178;28;20797;-70
2024/03/01 09:05:11;;;;;;;19.00;12.23;;;;;;;-146.29;100.00;59205.81;5028817;28;20458;-70
2024/03/01 09:07:37;;;;;;;22.47;12.90;;;;;;;-146.29;100.00;59205.81;5032013;28;20462;-71
2024/03/01 09:10:05;;;;;;;20.87;11.27;;;;;;;-146.29;100.00;59205.81;5010146;28;20208;-70
2024/03/01 09:12:30;;;;;;;23.27;12.67;;;;;;;-146.29;100.00;59205.81;5011002;28;20199;-70
2024/03/01 09:15:00;;;;;;;28.60;13.63;;;;;;;-146.29;100.00;59205.81;5026354;28;20438;-70
2024/03/01 09:17:27;;;;;;;17.90;10.80;;;;;;;-146.29;100.00;59205.81;5033109;28;20179;-70
2024/03/01 09:19:52;;;;;;;18.77;10.77;;;;;;;-146.29;100.00;59205.81;5028720;28;20488;-70
2024/03/01 09:22:19;;;;;;;21.90;13.83;;;;;;;-146.29;100.00;59205.81;5029936;28;20850;-70
2024/03/01 09:24:45;;;;;;;18.90;12.40;;;;;;;-146.29;100.00;59205.81;5032172;28;20438;-70
2024/03/01 09:27:24;;;;;;;18.97;11.50;;;;;;;-146.29;100.00;59205.81;5027887;28;20195;-69
2024/03/01 09:29:49;;;;;;;16.50;11.13;;;;;;;-146.29;100.00;59205.81;5031354;28;20438;-69
2024/03/01 09:32:16;;;;;;;21.00;15.00;;;;;;;-146.29;100.00;59205.81;5028738;28;20432;-70
2024/03/01 09:34:42;;;;;;;14.70;9.10;;;;;;;-146.29;100.00;59205.81;5028879;28;20273;-71
2024/03/01 09:37:12;;;;;;;15.37;9.33;;;;;;;-146.29;100.00;59205.81;5027301;28;20430;-70
2024/03/01 09:39:39;;;;;;;21.73;10.60;;;;;;;-146.29;100.00;59205.81;5026922;28;21086;-71
2024/03/01 09:42:19;;;;;;;14.40;9.70;;;;;;;-146.29;100.00;59205.81;5026490;28;20458;-70
2024/03/01 09:44:54;;;;;;;12.83;9.13;;;;;;;-146.29;100.00;59205.81;5027471;28;20993;-71
2024/03/01 09:47:39;;;;;;;11.93;8.30;;;;;;;-146.29;100.00;59205.81;5026899;28;20476;-71
2024/03/01 09:50:33;;;;;;;11.27;8.30;;;;;;;-146.29;100.00;59205.81;5032103;28;21076;-70
2024/03/01 09:53:43;;;;;;;20.93;8.80;;;;;;;-146.29;100.00;59205.81;5015208;28;20437;-71
2024/03/01 09:56:14;;;;;;;11.60;8.30;;;;;;;-146.29;100.00;59205.81;5026890;28;20494;-71
2024/03/01 09:58:55;;;;;;;13.23;8.80;;;;;;;-146.29;100.00;59205.81;5022146;28;21025;-71
2024/03/01 10:01:25;;;;;;;10.90;8.07;;;;;;;-146.29;100.00;59205.81;5026055;28;20434;-71
2024/03/01 10:03:58;;;;;;;11.10;7.50;;;;;;;-146.29;100.00;59205.81;5026550;28;20433;-70
2024/03/01 10:06:38;;;;;;;11.40;8.27;;;;;;;-146.29;100.00;59205.81;5034248;28;20533;-72
2024/03/01 10:09:11;;;;;;;10.70;7.03;;;;;;;-146.29;100.00;59205.81;5026276;28;20490;-71
2024/03/01 10:11:55;;;;;;;10.23;6.93;;;;;;;-146.29;100.00;59205.81;5030288;28;20425;-69
2024/03/01 10:14:29;;;;;;;10.13;7.20;;;;;;;-146.29;100.00;59205.81;5026727;28;20464;-71
2024/03/01 10:17:13;;;;;;;12.13;7.67;;;;;;;-146.29;100.00;59205.81;5047813;28;20428;-70
2024/03/01 10:19:56;;;;;;;12.53;7.27;;;;;;;-146.29;100.00;59205.81;5027599;28;20650;-71
2024/03/01 10:22:24;;;;;;;10.90;7.57;;;;;;;-146.29;100.00;59205.81;5029082;28;20994;-72
2024/03/01 10:25:18;;;;;;;10.07;7.10;;;;;;;-146.29;100.00;59205.81;5028746;28;20423;-70
2024/03/01 10:27:52;;;;;;;11.50;7.23;;;;;;;-146.29;100.00;59205.81;5038765;28;20923;-70
2024/03/01 10:30:23;;;;;;;11.50;7.70;;;;;;;-146.29;100.00;59205.81;5025559;28;20509;-71
2024/03/01 10:33:24;;;;;;;13.93;7.80;;;;;;;-146.29;100.00;59205.81;5027874;28;20794;-71
2024/03/01 10:36:04;;;;;;;11.60;8.03;;;;;;;-146.29;100.00;59205.81;5024814;28;20426;-70
2024/03/01 10:38:33;;;;;;;12.53;8.13;;;;;;;-146.29;100.00;59205.81;5042690;28;20533;-70
2024/03/01 10:41:11;;;;;;;12.00;8.00;;;;;;;-146.29;100.00;59205.81;5026293;28;20592;-71
2024/03/01 10:43:39;;;;;;;11.10;7.70;;;;;;;-146.29;100.00;59205.81;5025877;28;20424;-71
2024/03/01 10:46:12;;;;;;;14.40;8.50;;;;;;;-146.29;100.00;59205.81;5037808;28;20421;-71
2024/03/01 10:48:48;;;;;;;16.80;10.03;;;;;;;-146.29;100.00;59205.81;4994047;28;20450;-71
2024/03/01 10:51:15;;;;;;;13.47;9.20;;;;;;;-146.29;100.00;59205.81;5029965;28;20533;-70
2024/03/01 10:53:49;;;;;;;12.93;8.93;;;;;;;-146.29;100.00;59205.81;5034111;28;20575;-70
2024/03/01 10:56:14;;;;;;;13.67;8.87;;;;;;;-146.29;100.00;59205.81;5036930;28;20422;-71
2024/03/01 10:58:48;;;;;;;13.77;9.53;;;;;;;-146.29;100.00;59205.81;5032918;28;20452;-70